Time;durP1;ratioP1;P1;durP2;ratioP2;P2;SDS_P1;SDS_P2;PMS_P1;PMS_P2;Temp;Humidity;BMP_temperature;BMP_pressure;BME280_temperature;BME280_humidity;BME280_pressure;Samples;Min_cycle;Max_cycle;Signal;HPM_P1;HPM_P2
2024/03/31 00:01:08;;;;;;;69.30;11.60;;;;;;;10.13;60.12;99317.24;104461;1287;24315;-58
2024/03/31 00:03:39;;;;;;;80.90;12.50;;;;;;;10.28;61.82;99322.23;104519;1283;22666;-58
2024/03/31 00:06:05;;;;;;;64.80;10.10;;;;;;;10.43;62.58;99322.56;104615;1288;22578;-57
2024/03/31 00:08:30;;;;;;;90.30;10.60;;;;;;;10.57;61.76;99326.17;104566;1291;23616;-58
2024/03/31 00:11:00;;;;;;;68.10;10.90;;;;;;;10.67;61.26;99329.59;104314;1285;23174;-58
2024/03/31 00:13:27;;;;;;;87.90;11.00;;;;;;;10.79;63.25;99329.68;104456;1285;24283;-59
2024/03/31 00:15:53;;;;;;;79.10;13.40;;;;;;;10.91;60.84;99321.78;104593;1292;22519;-58
2024/03/31 00:18:18;;;;;;;61.90;9.60;;;;;;;10.99;60.57;99320.93;104426;1283;25446;-59
2024/03/31 00:20:44;;;;;;;78.30;10.00;;;;;;;11.04;61.24;99324.54;104313;1285;22565;-58
2024/03/31 00:23:09;;;;;;;76.50;9.40;;;;;;;11.11;63.11;99322.56;104486;1285;22610;-57
2024/03/31 00:25:34;;;;;;;68.10;10.00;;;;;;;11.22;63.70;99327.13;106643;1285;22570;-58
2024/03/31 00:28:00;;;;;;;72.90;10.20;;;;;;;11.32;61.24;99331.73;106909;1284;25463;-57
2024/03/31 00:30:25;;;;;;;75.70;12.90;;;;;;;11.43;62.68;99332.14;106782;1284;22589;-58
2024/03/31 00:32:51;;;;;;;71.30;9.50;;;;;;;11.57;63.45;99330.36;107420;1282;24886;-57
2024/03/31 00:35:16;;;;;;;66.20;9.20;;;;;;;11.66;63.05;99335.36;107560;1282;22585;-59
2024/03/31 00:37:41;;;;;;;52.60;8.90;;;;;;;11.70;62.04;99337.10;107677;1295;22632;-58
2024/03/31 00:40:07;;;;;;;58.00;9.70;;;;;;;11.75;62.56;99331.35;107677;1290;22863;-57
2024/03/31 00:42:33;;;;;;;80.60;11.80;;;;;;;11.80;61.23;99329.59;107562;1287;22617;-58
2024/03/31 00:44:58;;;;;;;70.40;9.20;;;;;;;11.82;60.72;99322.27;106444;1288;22937;-57
2024/03/31 00:47:24;;;;;;;51.30;9.10;;;;;;;11.80;60.22;99318.38;104377;1285;22554;-57
2024/03/31 00:49:49;;;;;;;55.10;8.80;;;;;;;11.73;59.92;99314.33;104390;1292;22551;-59
2024/03/31 00:52:14;;;;;;;60.30;9.30;;;;;;;11.59;61.73;99315.60;104457;1286;22639;-59
2024/03/31 00:54:44;;;;;;;58.60;9.40;;;;;;;11.40;60.55;99309.67;104654;1282;23145;-59
2024/03/31 00:57:10;;;;;;;66.00;9.90;;;;;;;11.27;60.76;99306.73;104607;1292;22573;-59
2024/03/31 00:59:36;;;;;;;55.50;9.00;;;;;;;11.16;60.45;99312.69;104638;1282;23953;-58
2024/03/31 01:02:01;;;;;;;86.50;9.70;;;;;;;11.06;60.29;99312.42;104543;1283;25308;-59
2024/03/31 01:04:27;;;;;;;61.00;9.80;;;;;;;10.99;60.05;99317.48;104529;1291;22948;-58
2024/03/31 01:06:52;;;;;;;70.00;9.40;;;;;;;10.89;59.99;99313.22;104380;1283;22552;-58
2024/03/31 01:09:18;;;;;;;57.60;9.30;;;;;;;10.81;60.08;99313.57;104545;1294;22551;-58
2024/03/31 01:11:45;;;;;;;70.00;9.20;;;;;;;10.70;60.09;99313.96;104586;1282;22554;-57
2024/03/31 01:14:11;;;;;;;69.60;10.70;;;;;;;10.60;60.01;99314.88;104461;1288;24237;-58
2024/03/31 01:16:37;;;;;;;54.20;9.60;;;;;;;10.48;60.12;99315.29;104449;1285;24260;-58
2024/03/31 01:19:02;;;;;;;54.80;10.40;;;;;;;10.38;60.06;99315.02;104267;1288;25266;-58
2024/03/31 01:21:30;;;;;;;53.00;8.30;;;;;;;10.27;60.34;99319.70;104392;1292;24395;-59
2024/03/31 01:23:56;;;;;;;61.60;8.00;;;;;;;10.19;60.27;99317.36;104564;1285;22694;-59
2024/03/31 01:26:22;;;;;;;54.00;8.70;;;;;;;10.08;60.01;99310.35;104546;1298;25250;-58
2024/03/31 01:28:47;;;;;;;53.60;9.10;;;;;;;9.96;60.27;99308.51;104306;1291;26534;-60
2024/03/31 01:31:13;;;;;;;61.00;12.20;;;;;;;9.89;60.41;99309.77;104566;1291;24222;-58
2024/03/31 01:33:38;;;;;;;89.40;11.90;;;;;;;9.89;61.13;99312.74;104401;1288;22569;-59
2024/03/31 01:36:04;;;;;;;72.70;13.30;;;;;;;9.91;61.12;99310.06;104406;1288;22557;-58
2024/03/31 01:38:29;;;;;;;53.70;10.70;;;;;;;9.86;60.76;99308.54;104306;1284;25210;-58
2024/03/31 01:40:55;;;;;;;66.40;10.70;;;;;;;9.79;61.15;99305.19;104411;1285;22546;-57
2024/03/31 01:43:21;;;;;;;73.40;12.10;;;;;;;9.76;61.24;99308.56;104424;1288;22764;-59
2024/03/31 01:45:47;;;;;;;68.50;11.90;;;;;;;9.74;61.08;99312.08;104882;1282;22565;-58
2024/03/31 01:48:13;;;;;;;71.30;10.30;;;;;;;9.73;61.12;99318.46;104678;1295;22612;-58
2024/03/31 01:50:39;;;;;;;79.90;11.40;;;;;;;9.74;62.30;99315.67;104632;1282;24369;-58
2024/03/31 01:53:04;;;;;;;62.40;11.00;;;;;;;9.77;63.07;99316.77;104627;1283;22664;-58
2024/03/31 01:55:30;;;;;;;53.90;11.80;;;;;;;9.76;62.59;99317.33;104639;1291;25417;-58
2024/03/31 01:57:55;;;;;;;79.50;11.90;;;;;;;9.74;61.52;99315.85;104541;1292;22564;-58
2024/03/31 02:00:20;;;;;;;67.80;11.00;;;;;;;9.75;61.73;99317.36;104502;1292;25436;-58
2024/03/31 02:02:49;;;;;;;64.70;10.30;;;;;;;9.76;61.91;99313.38;104602;1292;22567;-58
2024/03/31 02:05:14;;;;;;;65.60;11.70;;;;;;;9.78;61.72;99312.95;104426;1288;22557;-57
2024/03/31 02:07:40;;;;;;;81.60;10.10;;;;;;;9.79;62.03;99311.88;104396;1291;22577;-57
2024/03/31 02:10:06;;;;;;;69.00;11.80;;;;;;;9.80;61.79;99311.85;104382;1292;25441;-57
2024/03/31 02:12:33;;;;;;;79.90;13.20;;;;;;;9.81;62.07;99308.02;104176;1291;24910;-58
2024/03/31 02:14:59;;;;;;;;;;;;;;;9.84;65.57;99308.43;104493;1288;22530;-58
2024/03/31 02:17:24;;;;;;;70.20;10.90;;;;;;;9.90;64.32;99313.39;104591;1290;22564;-56
2024/03/31 02:19:49;;;;;;;62.90;8.90;;;;;;;9.91;62.67;99314.36;104575;1288;22565;-58
2024/03/31 02:22:18;;;;;;;61.40;9.20;;;;;;;9.89;62.64;99310.14;104632;1291;22550;-58
2024/03/31 02:24:44;;;;;;;67.90;10.50;;;;;;;9.90;62.71;99311.82;104319;1288;25426;-58
2024/03/31 02:27:10;;;;;;;74.00;10.70;;;;;;;9.90;62.96;99320.44;104790;1292;22615;-58
2024/03/31 02:29:35;;;;;;;63.60;11.60;;;;;;;9.86;63.14;99318.70;104393;1282;22853;-58
2024/03/31 02:32:01;;;;;;;81.50;11.90;;;;;;;9.86;62.89;99321.48;104529;1287;22684;-57
2024/03/31 02:34:26;;;;;;;54.80;8.60;;;;;;;9.88;63.07;99324.47;104559;1286;22585;-59
2024/03/31 02:36:51;;;;;;;68.30;9.60;;;;;;;9.89;62.86;99319.61;104732;1290;22817;-58
2024/03/31 02:39:17;;;;;;;69.40;9.70;;;;;;;9.88;62.94;99322.23;104711;1291;25365;-58
2024/03/31 02:41:42;;;;;;;61.20;10.30;;;;;;;9.87;62.90;99315.39;104694;1283;22643;-58
2024/03/31 02:44:08;;;;;;;62.30;9.20;;;;;;;9.90;62.96;99313.91;104613;1282;26598;-57
2024/03/31 02:46:33;;;;;;;63.90;9.50;;;;;;;9.91;62.92;99312.30;104515;1292;26005;-61
2024/03/31 02:48:58;;;;;;;74.80;10.30;;;;;;;9.94;63.00;99310.31;104372;1294;25470;-59
2024/03/31 02:51:24;;;;;;;73.50;9.90;;;;;;;10.01;63.21;99303.55;104521;1282;22565;-58
2024/03/31 02:53:49;;;;;;;75.10;9.10;;;;;;;10.07;63.44;99301.80;104259;1288;24737;-59
2024/03/31 02:56:14;;;;;;;60.90;8.20;;;;;;;10.12;63.81;99296.95;104473;1288;25338;-58
2024/03/31 02:58:40;;;;;;;62.20;9.40;;;;;;;10.15;63.51;99297.20;104477;1285;22545;-59
2024/03/31 03:01:06;;;;;;;76.60;9.00;;;;;;;10.20;64.11;99301.86;104367;1291;22672;-58
2024/03/31 03:03:31;;;;;;;66.00;10.70;;;;;;;10.26;63.94;99297.70;104502;1292;22523;-57
2024/03/31 03:05:57;;;;;;;90.20;10.50;;;;;;;10.29;65.89;99296.54;104522;1283;26369;-59
2024/03/31 03:08:23;;;;;;;69.30;9.60;;;;;;;10.31;64.55;99303.02;104890;1282;23378;-58
2024/03/31 03:10:53;;;;;;;62.80;8.20;;;;;;;10.30;64.44;99301.17;104357;1298;22538;-57
2024/03/31 03:13:18;;;;;;;55.40;8.00;;;;;;;10.27;63.74;99297.48;104769;1291;22585;-58
2024/03/31 03:15:44;;;;;;;67.70;8.30;;;;;;;10.20;63.74;99293.44;104607;1288;22553;-58
2024/03/31 03:18:14;;;;;;;71.40;8.30;;;;;;;10.13;64.07;99288.84;104553;1283;25517;-59
2024/03/31 03:20:39;;;;;;;63.60;8.30;;;;;;;10.09;64.00;99289.32;104928;1298;22949;-58
2024/03/31 03:23:05;;;;;;;68.10;10.10;;;;;;;10.06;64.28;99289.59;104663;1304;22592;-58
2024/03/31 03:25:30;;;;;;;60.80;7.80;;;;;;;10.05;64.14;99291.02;104563;1286;22799;-60
2024/03/31 03:27:56;;;;;;;54.70;9.00;;;;;;;10.02;64.35;99290.06;104128;1299;22593;-59
2024/03/31 03:30:21;;;;;;;61.80;8.40;;;;;;;10.02;64.18;99287.00;104332;1298;24173;-58
2024/03/31 03:32:47;;;;;;;59.80;8.60;;;;;;;10.00;64.06;99286.02;104268;1292;22568;-58
2024/03/31 03:35:13;;;;;;;59.30;8.20;;;;;;;9.99;64.10;99280.56;104462;1283;22592;-58
2024/03/31 03:37:38;;;;;;;66.60;8.40;;;;;;;10.01;64.78;99278.05;104612;1292;22567;-58
2024/03/31 03:40:05;;;;;;;70.30;10.00;;;;;;;10.05;67.70;99274.13;104723;1289;22666;-58
2024/03/31 03:42:30;;;;;;;64.30;9.10;;;;;;;10.05;64.93;99269.50;104743;1283;22577;-58
2024/03/31 03:44:55;;;;;;;62.30;9.40;;;;;;;10.03;64.50;99266.81;104438;1283;25657;-58
2024/03/31 03:47:21;;;;;;;60.60;8.70;;;;;;;9.98;64.51;99265.94;104290;1289;23276;-59
2024/03/31 03:49:46;;;;;;;64.70;8.00;;;;;;;9.96;64.17;99263.42;104541;1298;22601;-59
2024/03/31 03:52:12;;;;;;;67.30;9.10;;;;;;;9.92;66.41;99263.21;104362;1291;22569;-58
2024/03/31 03:54:37;;;;;;;72.80;8.40;;;;;;;9.90;67.75;99264.32;104246;1288;22588;-57
2024/03/31 03:57:03;;;;;;;68.50;8.90;;;;;;;9.84;65.42;99264.41;104431;1300;26143;-59
2024/03/31 03:59:28;;;;;;;57.50;9.20;;;;;;;9.78;65.18;99264.59;104452;1286;22557;-57
2024/03/31 04:01:53;;;;;;;64.40;9.40;;;;;;;9.76;64.97;99260.89;104504;1295;24244;-58
2024/03/31 04:04:19;;;;;;;63.80;8.20;;;;;;;9.73;65.32;99258.58;104441;1295;22551;-59
2024/03/31 04:06:44;;;;;;;65.20;9.50;;;;;;;9.69;65.46;99259.59;104482;1289;22748;-58
2024/03/31 04:09:10;;;;;;;69.70;10.50;;;;;;;9.61;66.78;99267.40;104657;1292;22777;-57
2024/03/31 04:11:35;;;;;;;68.60;10.10;;;;;;;9.61;66.31;99268.61;104651;1292;23110;-57
2024/03/31 04:14:00;;;;;;;66.30;9.50;;;;;;;9.57;65.37;99265.30;104388;1299;24359;-58
2024/03/31 04:16:26;;;;;;;63.40;8.90;;;;;;;9.52;65.27;99266.50;105317;1283;25494;-59
2024/03/31 04:18:52;;;;;;;71.10;10.40;;;;;;;9.49;65.51;99268.69;105552;1283;24308;-59
2024/03/31 04:21:17;;;;;;;74.50;9.00;;;;;;;9.48;65.90;99272.98;105691;1287;22573;-61
2024/03/31 04:23:43;;;;;;;66.00;8.70;;;;;;;9.48;67.09;99274.02;105585;1292;25965;-60
2024/03/31 04:26:08;;;;;;;55.90;8.80;;;;;;;9.45;65.61;99273.09;105007;1283;22564;-58
2024/03/31 04:28:33;;;;;;;51.50;8.00;;;;;;;9.43;65.52;99269.23;104507;1292;22539;-59
2024/03/31 04:31:03;;;;;;;69.20;9.60;;;;;;;9.39;65.47;99271.25;104459;1285;25476;-57
2024/03/31 04:33:32;;;;;;;72.80;10.10;;;;;;;9.36;66.11;99272.55;104475;1292;22662;-57
2024/03/31 04:35:58;;;;;;;50.30;8.20;;;;;;;9.38;66.00;99274.89;104520;1288;23421;-59
2024/03/31 04:38:24;;;;;;;59.70;9.00;;;;;;;9.39;66.04;99276.56;104683;1292;22600;-58
2024/03/31 04:40:54;;;;;;;54.20;8.20;;;;;;;9.40;66.10;99275.66;104395;1299;22532;-60
2024/03/31 04:43:20;;;;;;;62.60;9.20;;;;;;;9.44;67.05;99277.42;104429;1298;25320;-59
2024/03/31 04:45:45;;;;;;;75.60;8.90;;;;;;;9.52;67.18;99275.12;104425;1301;22581;-59
2024/03/31 04:48:11;;;;;;;60.50;8.30;;;;;;;9.60;67.87;99272.58;104580;1289;22548;-59
2024/03/31 04:50:37;;;;;;;66.10;7.90;;;;;;;9.66;66.32;99273.27;104552;1299;22464;-58
2024/03/31 04:53:02;;;;;;;63.90;8.90;;;;;;;9.68;66.03;99271.31;104367;1298;22828;-57
2024/03/31 04:55:28;;;;;;;71.00;8.60;;;;;;;9.71;66.61;99264.33;104353;1292;25484;-57
2024/03/31 04:57:53;;;;;;;62.10;8.70;;;;;;;9.78;67.31;99271.83;104625;1283;22611;-58
2024/03/31 05:00:18;;;;;;;63.80;8.60;;;;;;;9.87;68.39;99274.23;104425;1292;22552;-59
2024/03/31 05:02:47;;;;;;;59.20;9.40;;;;;;;9.99;67.30;99275.87;104712;1288;24012;-58
2024/03/31 05:05:12;;;;;;;51.40;8.50;;;;;;;10.13;68.62;99280.40;104439;1292;22584;-58
2024/03/31 05:07:38;;;;;;;55.90;8.40;;;;;;;10.23;68.25;99276.95;104472;1286;157920;-59
2024/03/31 05:10:03;;;;;;;64.20;8.10;;;;;;;10.37;68.78;99274.75;104431;1293;22517;-59
2024/03/31 05:12:30;;;;;;;43.90;8.00;;;;;;;10.48;67.40;99269.66;104257;1292;22644;-59
2024/03/31 05:14:55;;;;;;;63.80;8.20;;;;;;;10.57;67.32;99272.23;104379;1292;23608;-58
2024/03/31 05:17:21;;;;;;;54.90;7.60;;;;;;;10.66;66.86;99275.02;104457;1289;25435;-58
2024/03/31 05:19:51;;;;;;;60.30;8.70;;;;;;;10.71;66.64;99277.56;104606;1292;23333;-58
2024/03/31 05:22:16;;;;;;;50.00;7.60;;;;;;;10.76;66.66;99280.14;104429;1286;22538;-59
2024/03/31 05:24:43;;;;;;;72.40;8.70;;;;;;;10.80;66.47;99282.05;104599;1295;22676;-58
2024/03/31 05:27:08;;;;;;;54.80;8.90;;;;;;;10.84;66.42;99285.69;104613;1283;22566;-60
2024/03/31 05:29:34;;;;;;;56.90;8.00;;;;;;;10.90;66.70;99290.44;104491;1288;24229;-59
2024/03/31 05:31:59;;;;;;;62.00;8.60;;;;;;;10.98;67.48;99299.44;104348;1295;25438;-58
2024/03/31 05:34:24;;;;;;;63.10;8.30;;;;;;;11.05;67.23;99295.55;104451;1285;22622;-57
2024/03/31 05:36:50;;;;;;;58.60;9.80;;;;;;;11.14;66.72;99299.33;106722;1292;22558;-55
2024/03/31 05:39:15;;;;;;;55.90;8.40;;;;;;;11.23;66.66;99299.30;107611;1286;22723;-58
2024/03/31 05:41:41;;;;;;;60.70;8.10;;;;;;;11.31;66.38;99297.09;107638;1292;22626;-58
2024/03/31 05:44:06;;;;;;;42.60;7.30;;;;;;;11.39;66.57;99293.50;107549;1285;22625;-58
2024/03/31 05:46:31;;;;;;;51.80;8.40;;;;;;;11.49;66.52;99292.35;107378;1292;22587;-58
2024/03/31 05:48:57;;;;;;;56.50;9.00;;;;;;;11.60;66.55;99298.47;107675;1285;22560;-58
2024/03/31 05:51:22;;;;;;;53.60;6.90;;;;;;;11.71;66.84;99298.38;107779;1282;22853;-58
2024/03/31 05:53:47;;;;;;;53.20;7.10;;;;;;;11.81;67.62;99294.34;107735;1292;22601;-58
2024/03/31 05:56:13;;;;;;;53.20;8.30;;;;;;;11.93;67.16;99291.95;107784;1295;24788;-58
2024/03/31 05:58:38;;;;;;;49.20;6.60;;;;;;;12.04;66.99;99287.81;107599;1282;22111;-57
2024/03/31 06:01:04;;;;;;;49.90;6.60;;;;;;;12.15;67.61;99282.52;107359;1294;23503;-58
2024/03/31 06:03:29;;;;;;;44.70;8.20;;;;;;;12.28;67.10;99282.81;107646;1288;22586;-58
2024/03/31 06:05:54;;;;;;;63.00;8.30;;;;;;;12.42;66.88;99283.21;107672;1292;22940;-58
2024/03/31 06:08:20;;;;;;;54.30;8.20;;;;;;;12.54;67.01;99277.98;107688;1284;22615;-57
2024/03/31 06:10:45;;;;;;;53.00;8.10;;;;;;;12.64;66.94;99274.92;107686;1283;23102;-59
2024/03/31 06:13:11;;;;;;;57.10;7.70;;;;;;;12.75;66.81;99274.42;107469;1299;22704;-58
2024/03/31 06:15:37;;;;;;;43.30;7.20;;;;;;;12.88;67.02;99279.36;107707;1282;23284;-58
2024/03/31 06:18:03;;;;;;;46.50;7.40;;;;;;;12.98;67.15;99278.90;107481;1292;22799;-58
2024/03/31 06:20:28;;;;;;;51.30;8.70;;;;;;;13.04;67.33;99276.67;107590;1288;22939;-58
2024/03/31 06:22:53;;;;;;;47.00;7.70;;;;;;;13.12;67.14;99275.27;107618;1290;22846;-58
2024/03/31 06:25:19;;;;;;;41.40;7.70;;;;;;;13.20;66.70;99276.27;107587;1290;22590;-58
2024/03/31 06:27:44;;;;;;;52.70;7.30;;;;;;;13.30;66.96;99276.31;107536;1295;22706;-58
2024/03/31 06:30:11;;;;;;;56.40;9.70;;;;;;;13.37;66.71;99277.71;107571;1296;23032;-58
2024/03/31 06:32:36;;;;;;;48.60;10.10;;;;;;;13.45;66.66;99284.59;107461;1291;22807;-57
2024/03/31 06:35:04;;;;;;;55.40;7.00;;;;;;;13.52;66.63;99284.23;107543;1288;22619;-58
2024/03/31 06:37:29;;;;;;;48.10;9.30;;;;;;;13.60;66.58;99282.22;107301;1293;25218;-58
2024/03/31 06:39:55;;;;;;;44.10;7.90;;;;;;;13.69;66.46;99278.00;107545;1286;22622;-58
2024/03/31 06:42:20;;;;;;;58.90;8.30;;;;;;;13.75;66.46;99274.05;107616;1285;22754;-58
2024/03/31 06:44:46;;;;;;;48.10;7.20;;;;;;;13.81;66.36;99274.23;107539;1292;24112;-58
2024/03/31 06:47:11;;;;;;;42.40;7.00;;;;;;;13.88;66.20;99271.85;106381;1286;22745;-58
2024/03/31 06:49:36;;;;;;;41.10;7.40;;;;;;;13.97;66.32;99267.05;105126;1288;25457;-56
2024/03/31 06:52:03;;;;;;;48.30;7.90;;;;;;;14.07;66.29;99263.36;104913;1283;25438;-59
2024/03/31 06:54:28;;;;;;;48.60;5.90;;;;;;;14.21;66.16;99257.08;105135;1295;22703;-59
2024/03/31 06:56:54;;;;;;;45.20;6.90;;;;;;;14.34;66.08;99247.91;104766;1298;22578;-58
2024/03/31 06:59:19;;;;;;;40.70;6.50;;;;;;;14.43;65.90;99247.80;104608;1288;23963;-58
2024/03/31 07:01:45;;;;;;;35.40;5.60;;;;;;;14.53;65.95;99245.16;104526;1304;22565;-58
2024/03/31 07:04:10;;;;;;;47.80;6.20;;;;;;;14.67;65.93;99238.48;104513;1285;22605;-57
2024/03/31 07:06:36;;;;;;;36.40;5.20;;;;;;;14.85;65.97;99238.02;104558;1286;22860;-59
2024/03/31 07:09:01;;;;;;;47.70;7.30;;;;;;;15.05;65.89;99238.80;104471;1298;24226;-59
2024/03/31 07:11:27;;;;;;;41.10;7.10;;;;;;;15.23;65.62;99241.25;104460;1286;25436;-58
2024/03/31 07:13:53;;;;;;;50.30;7.70;;;;;;;15.39;65.47;99241.39;104246;1292;22581;-59
2024/03/31 07:16:19;;;;;;;41.70;7.50;;;;;;;15.49;65.41;99239.36;104464;1295;22597;-59
2024/03/31 07:18:44;;;;;;;47.50;6.30;;;;;;;15.63;65.34;99237.89;104502;1289;25395;-57
2024/03/31 07:21:10;;;;;;;46.80;6.40;;;;;;;15.73;65.20;99236.23;104419;1292;26601;-57
2024/03/31 07:23:35;;;;;;;38.50;7.80;;;;;;;15.81;65.01;99238.38;104582;1292;22554;-58
2024/03/31 07:26:00;;;;;;;36.40;6.50;;;;;;;15.91;64.56;99236.41;104590;1291;22703;-57
2024/03/31 07:28:27;;;;;;;47.80;7.70;;;;;;;15.93;64.12;99236.11;104488;1292;22933;-57
2024/03/31 07:30:53;;;;;;;42.10;6.50;;;;;;;15.93;64.62;99239.25;104750;1288;22666;-56
2024/03/31 07:33:19;;;;;;;37.70;8.40;;;;;;;16.00;63.79;99243.15;104638;1288;22583;-58
2024/03/31 07:35:45;;;;;;;40.40;5.90;;;;;;;16.06;63.58;99246.09;104545;1289;22571;-53
2024/03/31 07:38:10;;;;;;;39.60;5.90;;;;;;;16.14;63.77;99245.37;104549;1296;22584;-56
2024/03/31 07:40:36;;;;;;;47.30;7.10;;;;;;;16.24;63.83;99245.64;104655;1286;22589;-57
2024/03/31 07:43:02;;;;;;;53.60;7.30;;;;;;;16.46;64.21;99242.73;104504;1290;22569;-57
2024/03/31 07:45:28;;;;;;;49.50;6.30;;;;;;;16.76;63.90;99244.65;104885;1283;22601;-53
2024/03/31 07:47:53;;;;;;;54.00;7.40;;;;;;;16.93;61.36;99236.31;104888;1296;23060;-56
2024/03/31 07:50:19;;;;;;;40.60;7.40;;;;;;;17.06;63.12;99239.80;104718;1289;25640;-57
2024/03/31 07:52:44;;;;;;;46.10;7.60;;;;;;;17.31;63.01;99247.52;104591;1292;22551;-57
2024/03/31 07:55:09;;;;;;;43.00;7.40;;;;;;;17.48;61.76;99258.64;104634;1297;22557;-56
2024/03/31 07:57:35;;;;;;;42.20;7.30;;;;;;;17.52;62.44;99259.03;104637;1293;23943;-55
2024/03/31 08:00:02;;;;;;;42.60;6.70;;;;;;;17.67;62.68;99249.84;104548;1305;22562;-57
2024/03/31 08:02:27;;;;;;;38.10;7.10;;;;;;;17.87;62.09;99254.07;104649;1287;22547;-57
2024/03/31 08:04:53;;;;;;;51.30;8.50;;;;;;;18.02;61.19;99256.04;104704;1299;24391;-58
2024/03/31 08:07:18;;;;;;;44.90;7.50;;;;;;;18.24;62.17;99258.34;104377;1295;22563;-59
2024/03/31 08:09:43;;;;;;;58.60;7.30;;;;;;;18.52;61.19;99257.39;104317;1282;22697;-61
2024/03/31 08:12:09;;;;;;;53.00;9.40;;;;;;;18.82;60.27;99259.11;104110;1300;25386;-60
2024/03/31 08:14:34;;;;;;;41.30;6.80;;;;;;;19.25;61.49;99261.77;104246;1292;25517;-57
2024/03/31 08:17:00;;;;;;;47.10;7.70;;;;;;;19.80;61.25;99262.21;104249;1285;22609;-61
2024/03/31 08:19:25;;;;;;;57.90;7.90;;;;;;;20.11;60.20;99260.16;104091;1287;24239;-60
2024/03/31 08:21:51;;;;;;;40.40;7.30;;;;;;;20.10;57.96;99260.42;104112;1289;24019;-59
2024/03/31 08:24:17;;;;;;;48.30;7.60;;;;;;;20.14;59.44;99255.17;104341;1292;23020;-60
2024/03/31 08:26:42;;;;;;;44.30;7.70;;;;;;;20.36;59.27;99251.14;104314;1295;25322;-59
2024/03/31 08:29:08;;;;;;;39.50;7.40;;;;;;;20.46;57.75;99253.02;104306;1291;22647;-60
2024/03/31 08:31:33;;;;;;;43.00;6.90;;;;;;;20.25;57.07;99249.77;104279;1293;25517;-60
2024/03/31 08:33:59;;;;;;;48.90;8.50;;;;;;;20.18;57.87;99249.15;104244;1289;23762;-59
2024/03/31 08:36:25;;;;;;;45.30;7.20;;;;;;;20.14;57.10;99251.67;104235;1283;22715;-60
2024/03/31 08:38:50;;;;;;;43.80;7.30;;;;;;;20.04;56.68;99255.41;104200;1288;27102;-60
2024/03/31 08:41:47;;;;;;;41.20;6.70;;;;;;;19.82;56.21;99251.15;104207;1289;22598;-59
2024/03/31 08:44:15;;;;;;;49.40;7.30;;;;;;;19.56;56.71;99247.91;104404;1283;22627;-59
2024/03/31 08:46:41;;;;;;;43.60;6.70;;;;;;;19.48;56.22;99245.02;104660;1289;26629;-58
2024/03/31 08:49:07;;;;;;;46.50;8.20;;;;;;;19.29;56.02;99241.89;104292;1283;22580;-59
2024/03/31 08:51:33;;;;;;;36.70;6.50;;;;;;;19.16;56.19;99234.78;104299;1299;22564;-59
2024/03/31 08:53:59;;;;;;;47.00;8.90;;;;;;;19.02;55.14;99231.13;104469;1295;22567;-58
2024/03/31 08:56:25;;;;;;;41.50;6.80;;;;;;;18.94;56.09;99227.34;104282;1291;22577;-60
2024/03/31 08:58:51;;;;;;;51.90;7.10;;;;;;;18.92;55.75;99222.63;104382;1292;23970;-60
2024/03/31 09:01:21;;;;;;;33.90;5.50;;;;;;;18.90;55.77;99218.58;104273;1290;22814;-60
2024/03/31 09:03:46;;;;;;;46.00;8.00;;;;;;;18.95;56.00;99216.81;104191;1288;24246;-60
2024/03/31 09:06:12;;;;;;;33.10;5.90;;;;;;;19.04;55.80;99212.84;104220;1292;25263;-60
2024/03/31 09:08:38;;;;;;;46.90;6.10;;;;;;;19.07;54.81;99213.80;104232;1283;25513;-60
2024/03/31 09:11:06;;;;;;;37.20;6.10;;;;;;;18.93;53.91;99212.05;104206;1286;25514;-60
2024/03/31 09:13:34;;;;;;;42.00;8.50;;;;;;;18.82;55.11;99207.45;104208;1283;25571;-60
2024/03/31 09:16:01;;;;;;;46.20;7.80;;;;;;;18.92;54.78;99206.92;104385;1298;22563;-59
2024/03/31 09:18:26;;;;;;;34.40;6.80;;;;;;;18.98;54.68;99208.19;104273;1287;21771;-58
2024/03/31 09:20:52;;;;;;;41.90;6.30;;;;;;;19.03;54.71;99209.55;104051;1302;22564;-61
2024/03/31 09:23:18;;;;;;;53.60;7.10;;;;;;;19.06;54.71;99213.20;104239;1289;22563;-59
2024/03/31 09:25:43;;;;;;;39.00;6.40;;;;;;;19.08;54.82;99214.10;104210;1299;25333;-60
2024/03/31 09:28:09;;;;;;;40.70;6.00;;;;;;;19.07;53.88;99215.95;104239;1294;22658;-60
2024/03/31 09:30:35;;;;;;;43.40;6.40;;;;;;;18.95;54.72;99216.27;104243;1289;25423;-59
2024/03/31 09:33:02;;;;;;;46.90;7.10;;;;;;;19.05;54.89;99217.27;104237;1284;22565;-57
2024/03/31 09:35:28;;;;;;;37.80;6.70;;;;;;;19.14;54.99;99220.65;104354;1295;22584;-61
2024/03/31 09:37:53;;;;;;;44.80;5.80;;;;;;;19.18;54.56;99223.45;104259;1292;22932;-59
2024/03/31 09:40:20;;;;;;;41.50;7.00;;;;;;;19.14;54.39;99217.82;104334;1287;22593;-60
2024/03/31 09:42:46;;;;;;;47.60;5.90;;;;;;;19.17;54.53;99214.47;104290;1283;22961;-58
2024/03/31 09:45:11;;;;;;;40.80;6.70;;;;;;;19.24;54.43;99209.77;104285;1299;22592;-59
2024/03/31 09:47:44;;;;;;;52.70;8.20;;;;;;;19.27;54.34;99204.09;104286;1287;22586;-60
2024/03/31 09:50:34;;;;;;;44.20;6.70;;;;;;;19.36;54.37;99201.86;104467;1286;22666;-61
2024/03/31 09:53:03;;;;;;;47.00;6.50;;;;;;;19.54;54.52;99199.51;104045;1286;22677;-59
2024/03/31 09:55:38;;;;;;;40.70;6.30;;;;;;;19.59;53.35;99197.05;104440;1292;25394;-59
2024/03/31 09:58:11;;;;;;;33.90;8.20;;;;;;;19.47;53.58;99199.95;104146;1292;22567;-57
2024/03/31 10:00:39;;;;;;;40.90;6.90;;;;;;;19.48;53.58;99198.11;104320;1283;22692;-57
2024/03/31 10:03:17;;;;;;;39.20;7.70;;;;;;;19.51;53.82;99195.69;104439;1292;22613;-58
2024/03/31 10:05:43;;;;;;;33.20;6.60;;;;;;;19.67;53.79;99189.23;104255;1292;25340;-62
2024/03/31 10:08:10;;;;;;;41.90;5.70;;;;;;;19.81;53.78;99187.26;103965;1295;24277;-59
2024/03/31 10:10:37;;;;;;;42.60;6.40;;;;;;;19.89;52.85;99190.15;104058;1283;22692;-60
2024/03/31 10:13:04;;;;;;;;;;;;;;;19.78;51.88;99194.80;107917;1282;22351;-60
2024/03/31 10:15:30;;;;;;;;;;;;;;;19.65;51.38;99198.48;106969;1295;22669;-60
2024/03/31 10:17:57;;;;;;;54.20;8.30;;;;;;;19.58;52.17;99203.08;104197;1291;25440;-60
2024/03/31 10:20:23;;;;;;;57.70;7.10;;;;;;;19.69;53.03;99198.69;104237;1291;22573;-61
2024/03/31 10:22:50;;;;;;;37.70;6.30;;;;;;;19.84;52.75;99196.83;104235;1291;22941;-58
2024/03/31 10:25:16;;;;;;;47.70;7.10;;;;;;;19.82;51.31;99196.94;104084;1291;22670;-61
2024/03/31 10:27:44;;;;;;;38.00;6.10;;;;;;;19.78;51.23;99195.20;104188;1292;22536;-62
2024/03/31 10:30:10;;;;;;;45.40;5.90;;;;;;;19.72;51.64;99194.12;104536;1292;22564;-61
2024/03/31 10:32:37;;;;;;;44.10;6.80;;;;;;;19.70;51.38;99193.03;104517;1292;22569;-60
2024/03/31 10:35:05;;;;;;;35.90;5.80;;;;;;;19.68;51.71;99192.80;104143;1283;22554;-57
2024/03/31 10:37:32;;;;;;;49.90;7.10;;;;;;;19.76;52.11;99195.30;104979;1290;22585;-59
2024/03/31 10:39:58;;;;;;;;;;;;;;;19.79;51.81;99195.77;104641;1283;22640;-59
2024/03/31 10:42:25;;;;;;;39.10;7.60;;;;;;;19.74;51.35;99202.17;104834;1282;22811;-59
2024/03/31 10:44:52;;;;;;;44.10;7.00;;;;;;;19.68;51.47;99202.93;104295;1289;22577;-61
2024/03/31 10:47:18;;;;;;;46.30;7.80;;;;;;;19.70;50.46;99204.58;104732;1288;25429;-58
2024/03/31 10:49:44;;;;;;;43.00;6.70;;;;;;;19.68;51.52;99200.91;104256;1285;25921;-62
2024/03/31 10:52:14;;;;;;;42.30;6.80;;;;;;;19.75;51.62;99202.44;104167;1288;23027;-60
2024/03/31 10:54:40;;;;;;;38.30;6.80;;;;;;;19.81;51.25;99198.29;104462;1289;25584;-59
2024/03/31 10:57:13;;;;;;;47.80;6.90;;;;;;;19.87;51.18;99199.55;105434;1298;26176;-59
2024/03/31 10:59:40;;;;;;;49.80;6.80;;;;;;;19.92;50.79;99194.80;105069;1295;22694;-63
2024/03/31 11:02:10;;;;;;;40.40;6.80;;;;;;;20.07;51.13;99195.70;104416;1299;22557;-62
2024/03/31 11:04:36;;;;;;;48.90;5.90;;;;;;;20.19;50.83;99194.41;104213;1286;22547;-64
2024/03/31 11:07:21;;;;;;;42.00;5.70;;;;;;;20.39;50.74;99196.87;104183;1288;22555;-62
2024/03/31 11:10:00;;;;;;;38.90;8.10;;;;;;;20.58;50.79;99196.80;104139;1301;23301;-63
2024/03/31 11:12:46;;;;;;;39.80;6.20;;;;;;;20.73;50.59;99194.53;104422;1291;22806;-62
2024/03/31 11:15:12;;;;;;;;;;;;;;;20.88;50.68;99194.52;104154;1287;22537;-62